Strona główna
METAR-TAF:

METAR-TAF

Lotnisko :

Port lotniczy Johannesburg

Johannesburg, Południowa Afryka

Szerokość geograficzna: 26-08S, Długość geograficzna: 028-14E, wysokość: 1694 m

Aktualna obserwacja pogody

Raport powstał 54 minut temu, godzina 19:00 UTC
Wiatr 2 kt z kierunków zmiennych
Temperatura 12°C
Wilgotność 32%
Ciśnienie 1028 hPa
Widzialność 10 km lub więcej
Brak chmur poniżej 1500 m i brak chmur cumulonimbus

METAR: FAOR 251900Z VRB02KT CAVOK 12/M04 Q1028 NOSIG

czas: 21:54 (19:54 UTC)

Prognoza

Raport powstał 3 godziny i 54 minut temu, godzina 16:00 UTC
Prognoza ważna od 25 godzina 18 UTC do 26 godzina 24 UTC
Wiatr 3 kt z kierunków zmiennych
Widzialność 10 km lub więcej
Brak chmur poniżej 1500 m i brak chmur cumulonimbus
Stopniowe zmiany
od 25 godzina 21 UTC do 25 godzina 23 UTC
Wiatr 7 kt od wschodnio-północny wschód
Stopniowe zmiany
od 26 godzina 09 UTC do 26 godzina 11 UTC
Wiatr 12 kt od północ

TAF: FAOR 251600Z 2518/2624 VRB03KT CAVOK BECMG 2521/2523 06007KT BECMG 2609/2611 36012KT TX17/2613Z TN05/2605Z

Obserwacja i prognoza pogody dla ponad 4000 lotnisk (raport METAR i TAF).

Dostępne stacje oznaczono żółtymi i czerwonymi punktami na mapie.

Najedź kursorem aby zobaczyć nazwę stacji.

Kliknij aby zobaczyć obserwacje i prognozy pogody.

Aby zmienić mapę: kliknij na zielony przycisk z czarnym krzyżykiem, aby powiększyć; na zielony przycisk z myślnikiem, aby pomniejszyć; na zielone strzałki, aby przejść do map sąsiednich.


METAR-TAF: